Sayler Park, Ohio
Current Conditions -  °F | °C
As of 9:18 AM on Wednesday 26 Nov 2014 (Local Time) from KI69 Reporting Station
Overcast Overcast  
Wind Chill: 30°   Ceiling: 1200
Heat Index: 30°   Visibility: 7mi
Dew Point: 28°   Wind: 3mph
Humidity: 93%   Direction: 20°NNE
Pressure: 30.13"   Gusts: NA
Location:  39.1192°N, 84.6634°W
Report Text: KI69 261418Z AUTO 02003KT 7SM OVC012 M01/M02 A3013 RMK AO1
Loading
Personal Weather Stations






























Interactive Weather Map New forecast layout! Learn more

10-Day Weather Forecast

Advertisements
Track Severe Weather on mobile